Time;durP1;ratioP1;P1;durP2;ratioP2;P2;SDS_P1;SDS_P2;PMS_P1;PMS_P2;Temp;Humidity;BMP_temperature;BMP_pressure;BME280_temperature;BME280_humidity;BME280_pressure;Samples;Min_cycle;Max_cycle;Signal;HPM_P1;HPM_P2
2021/11/28 00:01:12;;;;;;;12.63;10.03;;;;;;;10.73;80.61;100003.03;1775314;80;21397;-76
2021/11/28 00:03:39;;;;;;;17.73;10.13;;;;;;;10.74;80.49;100004.72;1775417;80;21145;-76
2021/11/28 00:06:14;;;;;;;15.05;9.23;;;;;;;10.74;80.36;100010.80;1775662;80;20885;-77
2021/11/28 00:11:34;;;;;;;18.92;10.35;;;;;;;10.73;80.46;100010.89;1775220;80;20980;-76
2021/11/28 00:16:30;;;;;;;23.77;12.50;;;;;;;10.69;80.64;100000.25;1775345;80;21953;-77
2021/11/28 00:18:57;;;;;;;15.72;10.65;;;;;;;10.67;80.59;99999.52;1775299;80;20920;-77
2021/11/28 00:21:25;;;;;;;17.15;10.53;;;;;;;10.65;80.54;99994.41;1775555;80;21327;-78
2021/11/28 00:23:53;;;;;;;13.35;9.28;;;;;;;10.63;80.55;99995.43;1775713;80;20947;-78
2021/11/28 00:26:21;;;;;;;17.05;10.20;;;;;;;10.61;80.64;99990.80;1775340;80;20936;-77
2021/11/28 00:28:48;;;;;;;13.22;8.68;;;;;;;10.58;80.72;99982.65;1775372;80;21122;-77
2021/11/28 00:31:15;;;;;;;12.88;9.23;;;;;;;10.58;80.77;99977.41;1775357;80;20920;-78
2021/11/28 00:33:42;;;;;;;14.55;9.35;;;;;;;10.55;80.82;99981.08;1775374;80;20928;-77
2021/11/28 00:36:10;;;;;;;15.60;9.55;;;;;;;10.54;80.87;99978.59;1775300;80;21488;-76
2021/11/28 00:38:37;;;;;;;14.98;10.25;;;;;;;10.54;80.83;99983.35;1775360;80;20869;-77
2021/11/28 00:41:04;;;;;;;13.85;9.45;;;;;;;10.51;80.78;99983.55;1775487;80;21132;-76
2021/11/28 00:43:31;;;;;;;13.60;10.60;;;;;;;10.49;80.77;99978.91;1775198;80;20968;-77
2021/11/28 00:45:58;;;;;;;13.13;9.38;;;;;;;10.46;80.84;99971.25;1775622;80;20924;-77
2021/11/28 00:48:29;;;;;;;13.05;9.83;;;;;;;10.46;80.89;99969.94;1775482;80;21390;-75
2021/11/28 00:51:10;;;;;;;15.15;8.50;;;;;;;10.44;80.99;99956.09;1775309;80;20979;-76
2021/11/28 00:53:24;;;;;;;14.45;9.98;;;;;;;10.44;81.11;99962.65;1738477;82;20924;-77
2021/11/28 00:55:51;;;;;;;15.10;10.08;;;;;;;10.44;81.18;99963.13;1783658;80;21529;-76
2021/11/28 00:58:18;;;;;;;15.50;11.28;;;;;;;10.43;81.32;99967.55;1783841;80;20915;-77
2021/11/28 01:00:45;;;;;;;16.30;10.98;;;;;;;10.44;81.31;99959.20;1783482;80;20845;-77
2021/11/28 01:03:13;;;;;;;16.02;10.45;;;;;;;10.44;81.18;99972.30;1783541;80;20932;-77
2021/11/28 01:05:41;;;;;;;12.28;9.55;;;;;;;10.43;81.16;99970.64;1783652;80;21069;-78
2021/11/28 01:08:07;;;;;;;11.73;9.78;;;;;;;10.42;81.19;99979.44;1783530;80;21370;-79
2021/11/28 01:10:35;;;;;;;16.60;10.30;;;;;;;10.39;81.21;99974.42;1783652;80;20908;-78
2021/11/28 01:13:04;;;;;;;13.90;9.25;;;;;;;10.40;81.20;99978.22;1783563;80;21445;-77
2021/11/28 01:15:31;;;;;;;17.02;10.63;;;;;;;10.39;81.22;99972.63;1783425;80;20955;-77
2021/11/28 01:17:59;;;;;;;15.35;11.00;;;;;;;10.40;81.23;99974.29;1783688;80;21965;-77
2021/11/28 01:20:26;;;;;;;20.62;12.58;;;;;;;10.37;81.15;99964.86;1783621;80;20904;-77
2021/11/28 01:22:53;;;;;;;17.48;11.93;;;;;;;10.35;81.06;99977.23;1783953;80;20936;-77
2021/11/28 01:25:20;;;;;;;20.10;12.05;;;;;;;10.33;81.00;99975.66;1783611;80;21267;-76
2021/11/28 01:27:48;;;;;;;18.80;12.50;;;;;;;10.30;81.06;99979.34;1783727;80;20884;-77
2021/11/28 01:30:15;;;;;;;21.25;11.73;;;;;;;10.27;81.14;99969.50;1783526;80;21507;-77
2021/11/28 01:32:43;;;;;;;18.55;12.50;;;;;;;10.25;81.19;99964.84;1783818;80;20935;-77
2021/11/28 01:35:12;;;;;;;19.27;13.68;;;;;;;10.22;81.27;99962.44;1783528;80;20971;-77
2021/11/28 01:37:39;;;;;;;20.57;13.50;;;;;;;10.21;81.31;99980.43;1753194;80;20936;-78
2021/11/28 01:40:10;;;;;;;22.17;14.40;;;;;;;10.16;81.37;99973.72;1783799;80;21393;-78
2021/11/28 01:42:51;;;;;;;20.08;15.25;;;;;;;10.16;81.47;99971.09;1783895;80;21159;-77
2021/11/28 01:45:27;;;;;;;26.12;14.68;;;;;;;10.15;81.53;99962.02;1783850;80;21022;-78
2021/11/28 01:47:58;;;;;;;27.15;15.48;;;;;;;10.15;81.64;99962.85;1783774;80;21453;-77
2021/11/28 01:50:26;;;;;;;18.85;13.85;;;;;;;10.17;81.64;99953.59;1783699;80;20975;-77
2021/11/28 01:52:54;;;;;;;18.00;13.90;;;;;;;10.17;81.65;99943.94;1783690;80;20964;-77
2021/11/28 01:55:25;;;;;;;20.75;15.25;;;;;;;10.19;81.58;99945.15;1775621;80;21954;-77
2021/11/28 01:57:54;;;;;;;24.25;16.82;;;;;;;10.20;81.53;99950.74;1775565;80;20972;-76
2021/11/28 02:00:26;;;;;;;17.30;14.70;;;;;;;10.21;81.42;99954.23;1775551;80;20928;-78
2021/11/28 02:02:53;;;;;;;20.40;14.33;;;;;;;10.23;81.32;99961.52;1775846;80;20916;-77
2021/11/28 02:05:20;;;;;;;19.00;13.62;;;;;;;10.26;81.21;99966.53;1775724;80;21335;-77
2021/11/28 02:07:48;;;;;;;18.30;14.33;;;;;;;10.27;81.09;99975.61;1775584;80;21150;-76
2021/11/28 02:10:15;;;;;;;18.67;13.03;;;;;;;10.29;81.10;99977.68;1775294;80;20881;-76
2021/11/28 02:12:46;;;;;;;31.97;14.60;;;;;;;10.31;81.03;99982.31;1776064;80;20940;-75
2021/11/28 02:15:15;;;;;;;20.00;14.30;;;;;;;10.33;81.12;99989.60;1775401;80;21493;-76
2021/11/28 02:17:52;;;;;;;19.17;13.68;;;;;;;10.39;80.97;99992.28;1775742;80;20848;-76
2021/11/28 02:20:21;;;;;;;19.73;13.38;;;;;;;10.43;80.81;100005.55;1775599;80;21092;-78
2021/11/28 02:22:50;;;;;;;17.30;13.53;;;;;;;10.46;80.57;100004.50;1775791;80;20936;-78
2021/11/28 02:25:16;;;;;;;22.22;13.38;;;;;;;10.46;80.25;99993.53;1775428;80;21370;-77
2021/11/28 02:27:44;;;;;;;18.70;13.18;;;;;;;10.45;80.21;99997.11;1775830;80;20932;-77
2021/11/28 02:30:12;;;;;;;19.02;12.05;;;;;;;10.43;80.15;100008.66;1775414;80;20936;-77
2021/11/28 02:32:40;;;;;;;21.45;12.65;;;;;;;10.39;80.26;100008.02;1753798;80;21131;-76
2021/11/28 02:35:07;;;;;;;15.05;12.75;;;;;;;10.33;80.39;100002.70;1775341;80;20888;-77
2021/11/28 02:37:34;;;;;;;19.52;13.62;;;;;;;10.30;80.63;99994.23;1775726;80;20983;-76
2021/11/28 02:40:03;;;;;;;23.05;15.53;;;;;;;10.28;80.77;99998.23;1775292;80;20932;-77
2021/11/28 02:42:30;;;;;;;24.45;17.30;;;;;;;10.27;80.80;100006.19;1775766;80;21587;-77
2021/11/28 02:44:57;;;;;;;25.97;16.42;;;;;;;10.23;80.76;100012.12;1775491;80;21506;-77
2021/11/28 02:47:24;;;;;;;19.60;14.63;;;;;;;10.21;80.83;100015.33;1775764;80;21061;-76
2021/11/28 02:49:51;;;;;;;21.80;15.40;;;;;;;10.17;80.86;100011.23;1775380;80;21031;-76
2021/11/28 02:52:18;;;;;;;23.18;14.95;;;;;;;10.15;80.97;100013.11;1775609;80;20932;-76
2021/11/28 02:54:45;;;;;;;19.42;14.50;;;;;;;10.13;81.03;100008.45;1775362;80;21371;-77
2021/11/28 02:57:12;;;;;;;20.62;14.80;;;;;;;10.14;81.07;100007.52;1775785;80;21108;-77
2021/11/28 02:59:40;;;;;;;26.02;15.63;;;;;;;10.12;81.20;100006.30;1775409;80;20952;-77
2021/11/28 03:02:07;;;;;;;23.27;16.50;;;;;;;10.10;81.34;100009.98;1775628;80;20919;-77
2021/11/28 03:04:45;;;;;;;22.87;16.37;;;;;;;10.07;81.51;100007.55;1773721;80;20900;-76
2021/11/28 03:07:17;;;;;;;23.95;17.57;;;;;;;10.06;81.60;100006.72;1775485;80;20971;-77
2021/11/28 03:09:44;;;;;;;23.70;15.63;;;;;;;10.05;81.64;100010.30;1775424;80;21733;-77
2021/11/28 03:12:11;;;;;;;26.10;17.12;;;;;;;10.04;81.74;100010.38;1775602;80;20979;-76
2021/11/28 03:14:38;;;;;;;24.30;16.73;;;;;;;10.06;81.78;100019.81;1775227;80;20886;-76
2021/11/28 03:17:05;;;;;;;18.00;14.78;;;;;;;10.05;81.85;100018.15;1775506;80;20885;-75
2021/11/28 03:19:32;;;;;;;23.38;16.00;;;;;;;10.02;81.88;100014.41;1775443;80;20936;-75
2021/11/28 03:21:59;;;;;;;24.15;16.25;;;;;;;10.01;81.96;100019.30;1775342;80;21498;-76
2021/11/28 03:24:26;;;;;;;24.20;17.20;;;;;;;9.98;82.05;100020.79;1775617;80;20865;-75
2021/11/28 03:26:53;;;;;;;28.05;18.90;;;;;;;9.93;82.13;100016.34;1775206;80;21516;-75
2021/11/28 03:29:23;;;;;;;28.20;18.40;;;;;;;9.89;82.16;100026.65;1775155;80;21449;-77
2021/11/28 03:32:08;;;;;;;23.25;17.60;;;;;;;9.82;82.22;100028.84;1775318;80;21375;-76
2021/11/28 03:34:37;;;;;;;24.07;18.00;;;;;;;9.76;82.32;100027.95;1775417;80;21347;-75
2021/11/28 03:37:12;;;;;;;28.73;18.73;;;;;;;9.72;82.42;100031.23;1774780;80;21453;-76
2021/11/28 03:39:38;;;;;;;23.87;17.85;;;;;;;9.67;82.58;100034.64;1775602;80;20877;-75
2021/11/28 03:42:07;;;;;;;21.82;17.17;;;;;;;9.63;82.76;100027.92;1775419;80;20912;-75
2021/11/28 03:44:36;;;;;;;26.75;16.75;;;;;;;9.60;82.82;100031.20;1775427;80;21035;-76
2021/11/28 03:47:07;;;;;;;32.15;18.57;;;;;;;9.57;82.95;100031.41;1773917;80;21138;-75
2021/11/28 03:49:35;;;;;;;23.07;17.65;;;;;;;9.52;83.05;100038.25;1775420;80;20932;-75
2021/11/28 03:52:03;;;;;;;33.15;20.23;;;;;;;9.49;83.21;100037.13;1775647;80;21464;-76
2021/11/28 03:54:32;;;;;;;26.12;19.02;;;;;;;9.45;83.30;100045.66;1774315;80;20956;-76
2021/11/28 03:56:59;;;;;;;28.02;17.42;;;;;;;9.42;83.36;100047.63;1775405;80;20877;-75
2021/11/28 03:59:27;;;;;;;23.60;16.05;;;;;;;9.39;83.38;100047.84;1753223;80;21204;-76
2021/11/28 04:01:54;;;;;;;22.50;17.00;;;;;;;9.37;83.47;100035.31;1775168;80;20923;-76
2021/11/28 04:04:21;;;;;;;27.93;16.50;;;;;;;9.35;83.47;100034.09;1775508;80;20964;-76
2021/11/28 04:07:05;;;;;;;22.58;17.20;;;;;;;9.33;83.50;100038.11;1678644;85;20921;-77
2021/11/28 04:09:32;;;;;;;25.60;16.32;;;;;;;9.33;83.64;100039.42;1678617;85;20980;-76
2021/11/28 04:12:01;;;;;;;24.12;16.50;;;;;;;9.33;83.67;100042.03;1678828;84;21419;-77
2021/11/28 04:14:30;;;;;;;19.73;15.28;;;;;;;9.34;83.72;100053.36;1678351;84;21608;-76
2021/11/28 04:16:57;;;;;;;21.20;13.90;;;;;;;9.34;83.78;100060.73;1678933;85;20948;-76
2021/11/28 04:19:26;;;;;;;19.95;15.00;;;;;;;9.34;83.85;100065.97;1678700;85;20948;-76
2021/11/28 04:21:53;;;;;;;19.07;15.30;;;;;;;9.36;83.85;100065.89;1678935;85;20952;-76
2021/11/28 04:24:19;;;;;;;17.87;14.23;;;;;;;9.37;83.89;100057.56;1678741;85;21167;-76
2021/11/28 04:26:46;;;;;;;20.95;14.38;;;;;;;9.40;83.92;100065.20;1678842;85;20956;-76
2021/11/28 04:29:17;;;;;;;20.00;12.70;;;;;;;9.41;83.93;100062.50;1678746;85;21450;-75
2021/11/28 04:31:43;;;;;;;19.92;13.45;;;;;;;9.45;84.01;100060.06;1678958;85;20973;-75
2021/11/28 04:34:10;;;;;;;19.60;12.20;;;;;;;9.50;84.00;100063.69;1678996;85;20976;-76
2021/11/28 04:36:38;;;;;;;21.00;13.28;;;;;;;9.55;83.95;100060.29;1679202;85;21390;-76
2021/11/28 04:39:05;;;;;;;20.23;13.10;;;;;;;9.61;83.79;100065.14;1678923;85;20985;-77
2021/11/28 04:41:32;;;;;;;19.55;12.88;;;;;;;9.65;83.55;100064.45;1731235;80;20884;-76
2021/11/28 04:44:02;;;;;;;16.52;12.53;;;;;;;9.64;83.17;100066.23;1775333;80;20941;-77
2021/11/28 04:46:30;;;;;;;18.07;12.73;;;;;;;9.63;83.33;100072.91;1775215;80;21447;-76
2021/11/28 04:48:59;;;;;;;15.50;12.47;;;;;;;9.64;83.37;100064.09;1775413;80;21069;-76
2021/11/28 04:51:27;;;;;;;16.15;12.50;;;;;;;9.65;83.34;100065.31;1775274;80;20877;-77
2021/11/28 04:53:54;;;;;;;23.38;14.58;;;;;;;9.65;83.10;100073.17;1775729;80;20936;-77
2021/11/28 04:56:21;;;;;;;21.97;14.43;;;;;;;9.64;83.09;100077.19;1775337;80;20987;-76
2021/11/28 04:58:49;;;;;;;17.35;13.95;;;;;;;9.66;82.99;100072.21;1775347;80;21330;-76
2021/11/28 05:01:16;;;;;;;15.45;12.68;;;;;;;9.66;82.86;100072.21;1775231;80;21126;-77
2021/11/28 05:03:43;;;;;;;16.62;11.97;;;;;;;9.64;82.75;100074.09;1775327;80;20916;-77
2021/11/28 05:06:30;;;;;;;16.07;12.23;;;;;;;9.61;82.71;100081.32;1775214;80;20983;-78
2021/11/28 05:08:57;;;;;;;15.28;11.90;;;;;;;9.60;82.84;100072.60;1775470;80;20885;-77
2021/11/28 05:11:24;;;;;;;12.73;10.55;;;;;;;9.59;82.84;100081.89;1775372;80;20971;-77
2021/11/28 05:13:53;;;;;;;16.80;12.65;;;;;;;9.55;82.86;100068.98;1775310;80;20905;-77
2021/11/28 05:16:21;;;;;;;14.85;11.68;;;;;;;9.57;82.75;100068.05;1775770;80;20984;-76
2021/11/28 05:18:56;;;;;;;18.12;11.63;;;;;;;9.58;82.75;100071.03;1726497;80;21418;-76
2021/11/28 05:21:28;;;;;;;15.43;11.10;;;;;;;9.59;82.63;100078.80;1774349;80;20876;-77
2021/11/28 05:23:55;;;;;;;16.55;11.85;;;;;;;9.58;82.47;100083.64;1775764;80;20964;-77
2021/11/28 05:26:23;;;;;;;20.08;12.15;;;;;;;9.60;82.63;100082.24;1775015;80;21524;-77
2021/11/28 05:28:50;;;;;;;12.98;10.88;;;;;;;9.64;82.71;100081.94;1775759;80;21347;-76
2021/11/28 05:31:18;;;;;;;14.25;12.25;;;;;;;9.70;82.62;100090.72;1775628;80;20884;-75
2021/11/28 05:34:03;;;;;;;20.75;14.28;;;;;;;9.75;82.45;100096.96;1775499;80;21403;-76
2021/11/28 05:36:43;;;;;;;16.57;12.28;;;;;;;9.80;82.21;100094.87;1715733;80;20892;-77
2021/11/28 05:39:11;;;;;;;20.68;15.00;;;;;;;9.83;82.04;100102.55;1775348;80;21113;-75
2021/11/28 05:41:38;;;;;;;23.40;16.12;;;;;;;9.84;81.77;100106.00;1775331;80;21438;-76
2021/11/28 05:44:05;;;;;;;21.60;15.30;;;;;;;9.84;81.59;100103.38;1775357;80;20884;-77
2021/11/28 05:46:36;;;;;;;31.60;20.40;;;;;;;9.83;81.40;100115.64;1774734;80;21015;-78
2021/11/28 05:49:13;;;;;;;17.23;13.95;;;;;;;9.81;81.22;100106.21;1722517;80;20888;-77
2021/11/28 05:51:42;;;;;;;18.73;13.93;;;;;;;9.78;81.06;100101.98;1746930;80;21527;-78
2021/11/28 05:54:09;;;;;;;13.83;11.15;;;;;;;9.73;81.02;100096.22;1775548;80;21450;-77
2021/11/28 05:56:37;;;;;;;14.93;11.85;;;;;;;9.71;81.15;100108.56;1768327;80;20889;-77
2021/11/28 05:59:04;;;;;;;14.95;11.48;;;;;;;9.70;81.11;100114.28;1768209;80;21529;-77
2021/11/28 06:01:31;;;;;;;14.03;10.82;;;;;;;9.69;81.20;100123.09;1768237;81;20992;-77
2021/11/28 06:03:59;;;;;;;14.40;10.95;;;;;;;9.72;81.08;100124.66;1768632;81;21363;-78
2021/11/28 06:06:46;;;;;;;14.75;11.48;;;;;;;9.73;80.98;100125.85;1722195;81;21343;-77
2021/11/28 06:09:15;;;;;;;15.03;11.40;;;;;;;9.74;80.97;100121.48;1767736;80;21410;-75
2021/11/28 06:11:43;;;;;;;16.70;11.75;;;;;;;9.75;80.95;100126.59;1768360;81;20878;-78
2021/11/28 06:14:10;;;;;;;15.40;11.75;;;;;;;9.79;80.91;100123.80;1768765;81;20945;-77
2021/11/28 06:16:51;;;;;;;14.75;10.88;;;;;;;9.79;80.61;100125.94;1765317;80;21208;-77
2021/11/28 06:19:22;;;;;;;14.80;10.82;;;;;;;9.75;80.28;100132.31;1748039;81;20956;-79
2021/11/28 06:22:11;;;;;;;17.50;10.45;;;;;;;9.69;80.20;100132.70;1768405;80;20897;-80
2021/11/28 06:24:41;;;;;;;14.83;11.50;;;;;;;9.66;80.30;100135.52;1767759;81;20976;-78
2021/11/28 06:27:11;;;;;;;14.95;10.48;;;;;;;9.67;80.50;100143.73;1768338;80;20995;-80
2021/11/28 06:29:38;;;;;;;18.73;12.35;;;;;;;9.71;80.59;100136.06;1768376;81;21943;-79
2021/11/28 06:32:05;;;;;;;16.55;11.65;;;;;;;9.72;80.69;100132.04;1768217;81;20897;-79
2021/11/28 06:34:37;;;;;;;16.35;13.05;;;;;;;9.79;80.75;100140.34;1768401;81;20838;-80
2021/11/28 06:37:15;;;;;;;18.70;13.13;;;;;;;9.81;80.63;100133.70;1744092;81;21474;-77
2021/11/28 06:40:00;;;;;;;19.50;12.30;;;;;;;9.84;80.54;100127.78;1768416;80;20845;-79
2021/11/28 06:42:32;;;;;;;20.80;12.78;;;;;;;9.86;80.41;100125.08;1767006;81;21236;-80
2021/11/28 06:44:58;;;;;;;19.70;13.00;;;;;;;9.91;80.33;100132.16;1768628;81;20881;-81
2021/11/28 06:47:25;;;;;;;18.95;13.08;;;;;;;9.90;80.26;100131.32;1768259;80;20896;-79
2021/11/28 06:49:52;;;;;;;20.52;12.95;;;;;;;9.89;80.29;100120.48;1768842;81;20971;-79
2021/11/28 06:52:38;;;;;;;20.05;13.05;;;;;;;9.89;80.38;100127.48;1768256;80;21383;-79
2021/11/28 06:55:23;;;;;;;25.12;15.38;;;;;;;9.88;80.20;100125.34;1768283;80;21153;-77
2021/11/28 06:57:52;;;;;;;20.30;14.45;;;;;;;9.90;80.09;100117.39;1767220;81;21525;-78
2021/11/28 07:00:22;;;;;;;17.42;12.55;;;;;;;9.89;79.95;100119.18;1768247;80;21007;-78
2021/11/28 07:02:49;;;;;;;15.53;13.28;;;;;;;9.89;79.83;100136.65;1768270;81;20889;-81
2021/11/28 07:05:27;;;;;;;18.12;12.90;;;;;;;9.88;79.92;100137.12;1764609;81;20988;-83
2021/11/28 07:07:55;;;;;;;18.07;12.55;;;;;;;9.86;80.05;100132.45;1770698;81;20882;-82
2021/11/28 07:10:24;;;;;;;17.35;12.28;;;;;;;9.88;80.13;100123.20;1768567;80;21423;-82
2021/11/28 07:12:54;;;;;;;16.65;13.13;;;;;;;9.90;80.22;100120.02;1768441;81;20908;-84
2021/11/28 07:15:22;;;;;;;17.30;12.05;;;;;;;9.92;80.10;100116.83;1768785;81;21449;-83
2021/11/28 07:17:52;;;;;;;14.50;11.20;;;;;;;9.93;80.07;100120.63;1768418;80;20976;-82
2021/11/28 07:20:22;;;;;;;14.30;11.33;;;;;;;9.96;80.14;100120.45;1763983;80;21346;-82
2021/11/28 07:22:52;;;;;;;14.78;11.97;;;;;;;10.01;80.03;100116.22;1768238;81;20945;-80
2021/11/28 07:25:20;;;;;;;15.93;12.05;;;;;;;10.09;80.11;100111.77;1768460;80;20896;-81
2021/11/28 07:27:48;;;;;;;16.65;11.43;;;;;;;10.14;79.91;100113.16;1768437;81;20916;-82
2021/11/28 07:30:16;;;;;;;14.87;11.03;;;;;;;10.19;79.78;100114.64;1768492;80;20967;-81
2021/11/28 07:32:44;;;;;;;14.25;11.90;;;;;;;10.23;79.53;100116.12;1768667;81;21039;-82
2021/11/28 07:35:31;;;;;;;20.27;14.38;;;;;;;10.23;79.35;100120.88;1768210;81;21453;-80
2021/11/28 07:38:00;;;;;;;22.10;15.00;;;;;;;10.22;79.23;100126.21;1766705;80;20920;-82
2021/11/28 07:40:26;;;;;;;15.70;12.58;;;;;;;10.21;79.28;100134.55;1768627;81;20889;-81
2021/11/28 07:43:05;;;;;;;15.53;12.13;;;;;;;10.20;78.95;100128.09;1765240;80;20983;-82
2021/11/28 07:45:36;;;;;;;15.32;12.93;;;;;;;10.19;78.77;100122.50;1756858;81;21156;-81
2021/11/28 07:48:10;;;;;;;19.35;13.20;;;;;;;10.16;78.89;100126.17;1748284;81;20992;-81
2021/11/28 07:50:39;;;;;;;18.05;13.48;;;;;;;10.16;79.06;100123.55;1767992;80;20893;-80
2021/11/28 07:53:05;;;;;;;15.32;12.65;;;;;;;10.18;79.19;100122.94;1768310;81;20905;-83
2021/11/28 07:55:33;;;;;;;15.95;12.85;;;;;;;10.23;79.15;100116.95;1770488;80;20991;-81
2021/11/28 07:58:00;;;;;;;15.98;12.85;;;;;;;10.25;78.93;100122.06;1775397;80;21127;-83
2021/11/28 08:00:42;;;;;;;16.32;11.93;;;;;;;10.26;78.76;100123.76;1775732;80;21022;-81
2021/11/28 08:03:10;;;;;;;16.40;11.80;;;;;;;10.25;78.51;100126.86;1774135;80;21362;-82
2021/11/28 08:05:58;;;;;;;14.58;12.05;;;;;;;10.26;78.44;100124.59;1775863;80;21323;-82
2021/11/28 08:08:32;;;;;;;15.85;12.07;;;;;;;10.24;78.45;100118.61;1773700;80;20884;-83
2021/11/28 08:11:11;;;;;;;20.08;16.00;;;;;;;10.19;78.58;100118.09;1717633;82;21339;-82
2021/11/28 08:13:40;;;;;;;21.82;17.30;;;;;;;10.18;78.74;100108.53;1717549;83;21557;-79
2021/11/28 08:16:07;;;;;;;21.52;13.83;;;;;;;10.17;78.74;100106.87;1718799;83;20983;-80
2021/11/28 08:18:35;;;;;;;19.37;13.85;;;;;;;10.20;78.75;100118.92;1717625;83;20996;-78
2021/11/28 08:21:02;;;;;;;15.95;12.85;;;;;;;10.24;78.75;100120.41;1717516;83;21015;-81
2021/11/28 08:23:29;;;;;;;19.62;13.30;;;;;;;10.27;78.63;100122.80;1717632;83;21823;-81
2021/11/28 08:25:56;;;;;;;22.27;15.08;;;;;;;10.26;78.69;100119.35;1717621;83;20869;-82
2021/11/28 08:28:24;;;;;;;26.40;18.65;;;;;;;10.27;78.78;100115.80;1717520;83;20960;-82
2021/11/28 08:30:51;;;;;;;18.45;14.83;;;;;;;10.29;78.74;100115.27;1717704;83;20984;-86
2021/11/28 08:33:36;;;;;;;21.35;14.63;;;;;;;10.32;78.71;100116.84;1717631;83;20896;-87
2021/11/28 08:36:16;;;;;;;19.37;14.23;;;;;;;10.35;78.46;100117.45;1717857;83;21162;-92
2021/11/28 08:38:43;;;;;;;17.98;14.83;;;;;;;10.34;78.27;100123.66;1717616;83;20956;-88
2021/11/28 08:41:11;;;;;;;17.80;14.40;;;;;;;10.34;78.27;100120.20;1717954;83;20991;-87
2021/11/28 08:43:38;;;;;;;19.07;14.83;;;;;;;10.33;78.34;100122.44;1717576;83;20993;-88
2021/11/28 08:46:05;;;;;;;22.30;16.55;;;;;;;10.33;78.36;100114.09;1720950;80;21442;-88
2021/11/28 08:48:34;;;;;;;20.97;16.55;;;;;;;10.39;78.44;100117.27;1754057;80;21148;-87
2021/11/28 08:51:01;;;;;;;18.85;15.40;;;;;;;10.44;77.99;100112.55;1776391;80;21038;-89
2021/11/28 08:53:29;;;;;;;21.00;17.67;;;;;;;10.44;77.77;100109.92;1777677;79;20888;-88
2021/11/28 08:55:59;;;;;;;22.65;17.27;;;;;;;10.42;77.88;100116.56;1780965;80;21009;-82
2021/11/28 08:58:26;;;;;;;25.68;18.15;;;;;;;10.43;77.84;100116.95;1784848;80;20857;-83
2021/11/28 09:00:53;;;;;;;31.10;19.95;;;;;;;10.43;78.00;100103.02;1784398;80;21748;-85
2021/11/28 09:03:20;;;;;;;24.30;19.48;;;;;;;10.42;77.75;100100.84;1783870;80;20833;-88
2021/11/28 09:05:47;;;;;;;28.40;23.32;;;;;;;10.42;77.85;100107.88;1783530;80;20865;-80
2021/11/28 09:10:23;;;;;;;31.82;24.12;;;;;;;10.51;77.83;100097.59;1799248;79;22561;-82
2021/11/28 09:12:50;;;;;;;29.95;21.77;;;;;;;10.48;77.74;100100.44;1758921;80;21386;-80
2021/11/28 09:15:17;;;;;;;26.30;19.80;;;;;;;10.45;77.84;100095.41;1759094;81;21123;-82
2021/11/28 09:17:51;;;;;;;29.18;22.20;;;;;;;10.44;77.97;100103.37;1758924;80;21476;-81
2021/11/28 09:20:18;;;;;;;28.38;22.30;;;;;;;10.40;77.92;100108.45;1758150;81;20991;-80
2021/11/28 09:25:16;;;;;;;29.42;22.75;;;;;;;10.32;77.88;100120.77;1758450;80;20939;-81
2021/11/28 09:27:46;;;;;;;26.17;21.05;;;;;;;10.30;77.93;100120.03;1758467;81;21144;-81
2021/11/28 09:30:14;;;;;;;30.52;22.77;;;;;;;10.33;78.11;100115.41;1754833;81;21395;-81
2021/11/28 09:32:41;;;;;;;34.35;24.75;;;;;;;10.37;78.20;100106.88;1749828;80;21007;-81
2021/11/28 09:35:08;;;;;;;30.92;24.05;;;;;;;10.43;78.30;100109.09;1750488;82;21550;-79
2021/11/28 09:37:35;;;;;;;32.25;23.27;;;;;;;10.48;78.11;100117.47;1750137;80;20936;-82
2021/11/28 09:40:05;;;;;;;29.15;22.87;;;;;;;10.51;77.92;100109.39;1750169;82;20995;-87
2021/11/28 09:42:38;;;;;;;29.95;23.80;;;;;;;10.50;77.72;100116.90;1749756;80;20928;-86
2021/11/28 09:45:06;;;;;;;25.72;21.55;;;;;;;10.48;77.73;100124.50;1750384;82;21516;-85
2021/11/28 09:47:34;;;;;;;25.12;20.85;;;;;;;10.41;77.61;100126.70;1751734;81;21048;-86
2021/11/28 09:50:06;;;;;;;26.30;21.77;;;;;;;10.35;77.84;100120.55;1751653;82;20861;-89
2021/11/28 09:52:33;;;;;;;25.15;20.23;;;;;;;10.30;78.09;100118.24;1749871;80;22005;-82
2021/11/28 09:55:04;;;;;;;43.23;31.95;;;;;;;10.32;78.20;100111.59;1751389;81;20928;-83
2021/11/28 09:57:31;;;;;;;32.65;24.20;;;;;;;10.35;78.42;100114.00;1752800;79;20920;-83
2021/11/28 09:59:58;;;;;;;26.57;22.55;;;;;;;10.38;78.31;100117.71;1750765;80;20940;-82
2021/11/28 10:02:32;;;;;;;28.57;22.65;;;;;;;10.39;78.10;100124.66;1750259;82;20948;-82
2021/11/28 10:05:03;;;;;;;20.90;18.42;;;;;;;10.40;78.26;100129.41;1750119;80;21903;-82
2021/11/28 10:07:30;;;;;;;17.77;15.50;;;;;;;10.43;78.00;100130.54;1750114;80;20872;-82
2021/11/28 10:09:57;;;;;;;22.98;19.27;;;;;;;10.40;77.78;100125.00;1741028;82;20960;-80
2021/11/28 10:12:28;;;;;;;19.30;16.93;;;;;;;10.38;77.83;100124.27;1736719;81;20925;-82
2021/11/28 10:15:01;;;;;;;23.18;19.82;;;;;;;10.37;77.88;100127.84;1737524;82;20963;-79
2021/11/28 10:17:31;;;;;;;21.55;18.85;;;;;;;10.38;77.92;100119.02;1736960;82;20857;-80
2021/11/28 10:20:00;;;;;;;20.25;17.95;;;;;;;10.43;78.07;100113.50;1737101;82;21023;-84
2021/11/28 10:22:27;;;;;;;25.57;19.70;;;;;;;10.51;78.06;100108.56;1736820;82;20929;-84
2021/11/28 10:25:04;;;;;;;26.30;21.82;;;;;;;10.63;78.03;100106.88;1736939;81;21100;-83
2021/11/28 10:27:41;;;;;;;21.52;18.87;;;;;;;10.73;77.77;100103.52;1736577;82;20885;-85
2021/11/28 10:30:15;;;;;;;24.77;21.17;;;;;;;10.82;77.32;100094.66;1736611;81;21065;-86
2021/11/28 10:32:44;;;;;;;27.13;22.75;;;;;;;10.85;76.88;100093.12;1736508;82;20968;-82
2021/11/28 10:35:11;;;;;;;30.45;23.92;;;;;;;10.86;76.73;100098.75;1736600;82;20932;-89
2021/11/28 10:37:41;;;;;;;26.68;22.75;;;;;;;10.84;76.44;100105.40;1736996;81;20937;-82
2021/11/28 10:40:10;;;;;;;30.08;22.40;;;;;;;10.80;76.43;100097.38;1736935;82;20873;-81
2021/11/28 10:42:38;;;;;;;27.15;21.85;;;;;;;10.82;76.56;100098.59;1737987;81;21449;-81
2021/11/28 10:45:17;;;;;;;26.40;21.75;;;;;;;10.86;76.55;100098.27;1736800;82;20964;-81
2021/11/28 10:47:56;;;;;;;30.55;23.45;;;;;;;10.90;76.36;100101.05;1735373;82;20961;-80
2021/11/28 10:50:30;;;;;;;34.85;26.82;;;;;;;10.90;76.33;100110.23;1736426;82;21057;-80
2021/11/28 10:53:09;;;;;;;32.53;26.80;;;;;;;10.93;76.05;100110.48;1736579;81;21450;-80
2021/11/28 10:55:45;;;;;;;45.35;32.85;;;;;;;10.91;76.16;100107.95;1736487;81;21114;-82
2021/11/28 10:58:22;;;;;;;50.05;35.83;;;;;;;10.94;75.98;100109.55;1736400;81;20901;-80
2021/11/28 11:00:55;;;;;;;47.73;34.10;;;;;;;10.95;75.83;100104.66;1736296;82;20896;-81
2021/11/28 11:03:30;;;;;;;50.80;36.77;;;;;;;10.96;75.72;100107.19;1729861;82;21296;-81
2021/11/28 11:06:24;;;;;;;59.80;38.85;;;;;;;10.97;75.68;100102.29;1736728;82;20997;-80
2021/11/28 11:08:55;;;;;;;58.90;40.63;;;;;;;10.99;75.62;100096.47;1737464;82;21820;-82
2021/11/28 11:11:24;;;;;;;65.15;42.55;;;;;;;11.01;75.62;100098.16;1746770;82;20916;-81
2021/11/28 11:13:54;;;;;;;65.22;43.68;;;;;;;11.04;75.67;100098.77;1750559;82;20904;-83
2021/11/28 11:16:40;;;;;;;73.87;47.90;;;;;;;11.10;75.56;100097.03;1750541;82;21393;-82
2021/11/28 11:19:34;;;;;;;73.22;46.30;;;;;;;11.16;75.58;100086.55;1750606;82;20939;-82
2021/11/28 11:22:18;;;;;;;67.55;43.87;;;;;;;11.25;75.45;100090.31;1750379;82;21159;-77
2021/11/28 11:24:51;;;;;;;69.95;46.28;;;;;;;11.31;75.03;100085.46;1750292;80;21421;-77
2021/11/28 11:27:36;;;;;;;71.15;46.37;;;;;;;11.34;74.86;100081.80;1750640;80;21072;-77
2021/11/28 11:30:12;;;;;;;67.37;44.45;;;;;;;11.37;74.67;100075.84;1750453;82;20900;-78
2021/11/28 11:32:50;;;;;;;69.22;44.10;;;;;;;11.37;74.43;100078.47;1750585;82;21014;-78
2021/11/28 11:35:25;;;;;;;61.15;39.63;;;;;;;11.39;74.50;100080.50;1750314;80;21342;-78
2021/11/28 11:38:00;;;;;;;63.95;39.83;;;;;;;11.43;74.32;100086.84;1750388;82;20964;-78